Terminal Aerodrome Forecast
Issued by NWS

Home | Current Version | Previous Version | Text Only | Print | Product List | Glossary On
Versions: 1 2 3 4 5 6 7 8 9 10 11 12 13 14 15 16
623
FTUS42 TJSJ 302320
TAFNCM
TAF
TNCM 302320Z 0100/0124 09011KT P6SM VCSH SCT022 SCT050 BKN120
      TEMPO 0100/0102 -SHRA SCT018 BKN040
     FM011300 09015KT P6SM -SHRA SCT025 SCT035 BKN080
     FM012300 09011KT P6SM VCTS SCT018CB SCT020 SCT022=

USA.gov is the U.S. government's official web portal to all federal, state and local government web resources and services.